Аэропорт: Наримановка. Костанай

ICAO: UAUU

METAR:
2020-10-19 23:00:00
UAUU 192300Z 18005MPS CAVOK 01/M03 Q1015 R15/CLRD70 NOSIG RMK QFE745/0993
METAR:
2020-10-19 20:05:00
TAF UAUU 192005Z 1921/2006 19003G08MPS 9999 SCT030 BECMG 2004/2005 20006MPS